createdAt,value
2022-08-18T00:01:22.408Z,6.20
2022-08-18T00:03:55.396Z,6.50
2022-08-18T00:06:23.893Z,5.80
2022-08-18T00:08:54.915Z,6.20
2022-08-18T00:11:21.315Z,6.20
2022-08-18T00:13:47.683Z,6.32
2022-08-18T00:16:14.287Z,6.30
2022-08-18T00:18:40.652Z,7.10
2022-08-18T00:21:07.313Z,6.22
2022-08-18T00:23:33.678Z,7.28
2022-08-18T00:26:00.231Z,7.70
2022-08-18T00:28:26.643Z,7.38
2022-08-18T00:30:53.887Z,7.38
2022-08-18T00:33:20.939Z,7.63
2022-08-18T00:35:47.339Z,7.95
2022-08-18T00:38:25.051Z,7.47
2022-08-18T00:40:54.297Z,7.40
2022-08-18T00:43:27.785Z,7.68
2022-08-18T00:45:54.301Z,8.53
2022-08-18T00:48:20.694Z,8.65
2022-08-18T00:50:58.940Z,7.65
2022-08-18T00:53:36.555Z,8.18
2022-08-18T00:56:13.680Z,7.90
2022-08-18T00:59:12.442Z,7.90
2022-08-18T01:01:39.836Z,8.45
2022-08-18T01:04:09.861Z,7.82
2022-08-18T01:06:51.297Z,7.38
2022-08-18T01:09:17.922Z,8.07
2022-08-18T01:11:44.677Z,8.07
2022-08-18T01:14:15.702Z,7.53
2022-08-18T01:17:01.550Z,7.15
2022-08-18T01:19:46.938Z,7.75
2022-08-18T01:22:27.930Z,7.75
2022-08-18T01:25:14.524Z,8.05
2022-08-18T01:27:41.859Z,7.97
2022-08-18T01:30:12.306Z,7.45
2022-08-18T01:32:39.415Z,8.13
2022-08-18T01:35:11.524Z,7.85
2022-08-18T01:37:37.976Z,8.18
2022-08-18T01:41:24.885Z,7.80
2022-08-18T01:42:56.390Z,8.05
2022-08-18T01:45:22.776Z,8.18
2022-08-18T01:47:50.360Z,7.45
2022-08-18T01:50:17.781Z,8.63
2022-08-18T01:52:44.177Z,8.90
2022-08-18T01:55:10.633Z,8.85
2022-08-18T01:57:42.836Z,9.25
2022-08-18T02:00:14.015Z,8.95
2022-08-18T02:02:42.092Z,9.05
2022-08-18T02:05:23.143Z,9.30
2022-08-18T02:07:53.926Z,10.52
2022-08-18T02:10:20.938Z,9.85
2022-08-18T02:12:47.330Z,9.10
2022-08-18T02:15:13.803Z,8.80
2022-08-18T02:17:43.255Z,9.10
2022-08-18T02:20:13.620Z,9.75
2022-08-18T02:22:40.403Z,10.38
2022-08-18T02:25:07.802Z,9.18
2022-08-18T02:27:35.135Z,9.73
2022-08-18T02:30:06.094Z,8.65
2022-08-18T02:32:33.019Z,9.57
2022-08-18T02:34:59.996Z,9.27
2022-08-18T02:37:26.475Z,8.80
2022-08-18T02:39:52.925Z,8.77
2022-08-18T02:42:19.317Z,8.32
2022-08-18T02:44:45.693Z,9.95
2022-08-18T02:47:12.174Z,9.77
2022-08-18T02:49:38.886Z,8.52
2022-08-18T02:52:05.911Z,9.00
2022-08-18T02:54:32.303Z,8.60
2022-08-18T02:56:58.693Z,9.38
2022-08-18T02:59:27.543Z,8.75
2022-08-18T03:01:56.107Z,8.30
2022-08-18T03:04:30.660Z,9.10
2022-08-18T03:07:00.925Z,9.05
2022-08-18T03:09:28.482Z,9.52
2022-08-18T03:11:54.899Z,9.02
2022-08-18T03:14:21.626Z,8.70
2022-08-18T03:16:53.900Z,10.43
2022-08-18T03:19:22.750Z,8.90
2022-08-18T03:21:49.197Z,8.95
2022-08-18T03:24:22.874Z,8.88
2022-08-18T03:26:51.067Z,8.73
2022-08-18T03:29:17.454Z,9.10
2022-08-18T03:31:44.443Z,10.10
2022-08-18T03:34:11.563Z,9.70
2022-08-18T03:36:37.989Z,8.30
2022-08-18T03:39:05.867Z,7.93
2022-08-18T03:41:58.901Z,9.07
2022-08-18T03:44:18.841Z,8.13
2022-08-18T03:46:45.271Z,8.40
2022-08-18T03:49:12.569Z,8.52
2022-08-18T03:51:43.425Z,8.65
2022-08-18T03:54:10.369Z,8.43
2022-08-18T03:56:38.833Z,7.22
2022-08-18T03:59:10.070Z,8.45
2022-08-18T04:01:39.544Z,8.52
2022-08-18T04:04:08.256Z,9.30
2022-08-18T04:06:39.302Z,8.35
2022-08-18T04:09:07.484Z,8.23
2022-08-18T04:11:36.563Z,8.40
2022-08-18T04:14:04.861Z,8.68
2022-08-18T04:16:32.314Z,7.82
2022-08-18T04:19:04.072Z,8.52
2022-08-18T04:21:36.617Z,9.32
2022-08-18T04:24:05.189Z,8.30
2022-08-18T04:26:34.922Z,9.30
2022-08-18T04:29:02.205Z,8.32
2022-08-18T04:31:29.783Z,8.68
2022-08-18T04:33:56.927Z,8.30
2022-08-18T04:36:23.734Z,8.80
2022-08-18T04:38:50.347Z,8.75
2022-08-18T04:41:17.583Z,8.25
2022-08-18T04:43:43.986Z,8.27
2022-08-18T04:46:11.286Z,9.25
2022-08-18T04:48:39.548Z,8.55
2022-08-18T04:51:11.665Z,8.90
2022-08-18T04:53:44.996Z,9.25
2022-08-18T04:56:28.058Z,8.23
2022-08-18T04:58:56.810Z,8.23
2022-08-18T05:01:27.195Z,8.88
2022-08-18T05:03:54.628Z,7.68
2022-08-18T05:06:25.081Z,8.60
2022-08-18T05:08:56.414Z,6.95
2022-08-18T05:11:24.390Z,8.40
2022-08-18T05:13:54.531Z,8.50
2022-08-18T05:16:27.505Z,8.38
2022-08-18T05:18:54.642Z,8.40
2022-08-18T05:21:24.323Z,8.18
2022-08-18T05:23:51.211Z,8.23
2022-08-18T05:26:19.170Z,8.65
2022-08-18T05:28:46.753Z,8.43
2022-08-18T05:31:17.062Z,7.95
2022-08-18T05:33:43.662Z,8.93
2022-08-18T05:36:25.313Z,7.97
2022-08-18T05:39:04.027Z,8.80
2022-08-18T05:41:34.483Z,8.52
2022-08-18T05:44:01.583Z,8.00
2022-08-18T05:46:43.435Z,8.50
2022-08-18T05:49:11.044Z,8.77
2022-08-18T05:51:42.831Z,8.13
2022-08-18T05:54:28.546Z,9.25
2022-08-18T05:56:59.106Z,8.18
2022-08-18T05:59:37.713Z,8.25
2022-08-18T06:02:20.342Z,8.52
2022-08-18T06:04:53.335Z,8.98
2022-08-18T06:07:34.567Z,7.70
2022-08-18T06:10:01.435Z,7.50
2022-08-18T06:12:37.703Z,8.95
2022-08-18T06:15:31.268Z,7.82
2022-08-18T06:18:23.461Z,8.45
2022-08-18T06:20:49.722Z,7.53
2022-08-18T06:23:28.418Z,7.70
2022-08-18T06:26:02.779Z,8.45
2022-08-18T06:29:08.160Z,8.63
2022-08-18T06:32:34.117Z,8.10
2022-08-18T06:37:59.910Z,8.20
2022-08-18T06:40:26.546Z,8.40
2022-08-18T06:42:53.059Z,8.27
2022-08-18T06:45:33.824Z,8.75
2022-08-18T06:48:15.624Z,8.70
2022-08-18T06:50:50.790Z,8.35
2022-08-18T06:53:26.868Z,9.38
2022-08-18T06:55:54.095Z,8.98
2022-08-18T06:58:30.515Z,7.78
2022-08-18T07:01:00.910Z,7.68
2022-08-18T07:03:36.338Z,8.05
2022-08-18T07:06:04.995Z,8.32
2022-08-18T07:08:41.115Z,8.27
2022-08-18T07:11:31.015Z,9.02
2022-08-18T07:14:16.206Z,8.52
2022-08-18T07:16:59.856Z,8.70
2022-08-18T07:19:29.734Z,9.75
2022-08-18T07:22:07.042Z,8.85
2022-08-18T07:24:38.922Z,9.02
2022-08-18T07:27:19.712Z,9.65
2022-08-18T07:29:58.387Z,9.52
2022-08-18T07:32:29.873Z,9.55
2022-08-18T07:34:59.646Z,10.57
2022-08-18T07:37:50.039Z,10.25
2022-08-18T07:40:31.861Z,10.80
2022-08-18T07:43:28.592Z,10.57
2022-08-18T07:46:01.658Z,10.27
2022-08-18T07:48:39.910Z,10.15
2022-08-18T07:51:16.565Z,10.77
2022-08-18T07:53:54.441Z,10.38
2022-08-18T07:56:42.753Z,11.80
2022-08-18T07:59:14.210Z,11.00
2022-08-18T08:01:49.722Z,12.65
2022-08-18T08:04:26.518Z,11.02
2022-08-18T08:07:25.497Z,11.57
2022-08-18T08:10:00.882Z,12.38
2022-08-18T08:12:42.823Z,11.77
2022-08-18T08:15:18.202Z,11.85
2022-08-18T08:18:01.895Z,11.60
2022-08-18T08:20:39.829Z,11.60
2022-08-18T08:23:17.984Z,11.07
2022-08-18T08:25:56.729Z,11.85
2022-08-18T08:28:51.316Z,12.75
2022-08-18T08:31:44.980Z,11.35
2022-08-18T08:34:18.566Z,11.30
2022-08-18T08:36:47.421Z,11.07
2022-08-18T08:39:41.469Z,12.20
2022-08-18T08:42:30.717Z,13.60
2022-08-18T08:45:04.582Z,12.48
2022-08-18T08:47:44.300Z,12.02
2022-08-18T08:50:22.999Z,13.32
2022-08-18T08:52:56.890Z,13.55
2022-08-18T08:55:27.529Z,13.57
2022-08-18T08:58:02.322Z,10.68
2022-08-18T09:00:29.379Z,11.80
2022-08-18T09:03:30.529Z,11.35
2022-08-18T09:06:00.081Z,9.90
2022-08-18T09:08:39.199Z,11.60
2022-08-18T09:11:22.216Z,10.65
2022-08-18T09:14:01.001Z,10.70
2022-08-18T09:16:45.950Z,11.20
2022-08-18T09:19:59.259Z,10.82
2022-08-18T09:22:36.737Z,10.63
2022-08-18T09:25:28.874Z,10.40
2022-08-18T09:28:15.056Z,10.52
2022-08-18T09:31:03.173Z,11.60
2022-08-18T09:33:45.246Z,9.70
2022-08-18T09:36:25.927Z,11.25
2022-08-18T09:39:54.761Z,10.25
2022-08-18T09:42:32.911Z,10.50
2022-08-18T09:46:04.263Z,11.00
2022-08-18T09:51:15.632Z,10.27
2022-08-18T09:53:46.908Z,10.82
2022-08-18T09:56:15.166Z,9.93
2022-08-18T09:58:51.075Z,10.75
2022-08-18T10:01:22.572Z,9.55
2022-08-18T10:04:29.233Z,10.57
2022-08-18T10:07:15.191Z,8.85
2022-08-18T10:10:02.734Z,10.15
2022-08-18T10:13:02.983Z,9.70
2022-08-18T10:15:52.667Z,10.85
2022-08-18T10:18:45.245Z,9.43
2022-08-18T10:21:21.123Z,9.73
2022-08-18T10:24:29.912Z,12.90
2022-08-18T10:26:55.019Z,9.88
2022-08-18T10:29:27.626Z,10.38
2022-08-18T10:31:57.651Z,12.82
2022-08-18T10:34:38.106Z,10.65
2022-08-18T10:37:38.955Z,12.65
2022-08-18T10:40:13.509Z,13.85
2022-08-18T10:43:01.595Z,12.77
2022-08-18T10:45:36.414Z,15.98
2022-08-18T10:48:02.708Z,13.13
2022-08-18T10:50:30.874Z,13.18
2022-08-18T10:53:38.844Z,11.85
2022-08-18T10:56:33.337Z,13.25
2022-08-18T10:59:18.393Z,13.23
2022-08-18T11:02:06.925Z,12.65
2022-08-18T11:04:43.149Z,12.50
2022-08-18T11:07:11.328Z,11.75
2022-08-18T11:09:41.694Z,10.93
2022-08-18T11:12:09.172Z,12.50
2022-08-18T11:15:22.131Z,12.50
2022-08-18T11:18:17.338Z,11.40
2022-08-18T11:20:47.240Z,11.88
2022-08-18T11:23:16.507Z,12.25
2022-08-18T11:25:44.803Z,12.35
2022-08-18T11:28:20.095Z,12.32
2022-08-18T11:30:50.945Z,12.10
2022-08-18T11:33:23.242Z,11.52
2022-08-18T11:35:53.955Z,14.45
2022-08-18T11:38:20.896Z,12.45
2022-08-18T11:41:10.643Z,16.60
2022-08-18T11:43:42.324Z,18.08
2022-08-18T11:46:16.935Z,12.93
2022-08-18T11:48:51.976Z,12.30
2022-08-18T11:51:24.697Z,10.80
2022-08-18T11:54:00.096Z,11.68
2022-08-18T11:56:45.950Z,13.25
2022-08-18T11:59:52.210Z,11.18
2022-08-18T12:02:19.561Z,11.57
2022-08-18T12:04:53.372Z,12.50
2022-08-18T12:07:33.455Z,12.90
2022-08-18T12:10:26.217Z,11.55
2022-08-18T12:15:43.956Z,10.05
2022-08-18T12:18:18.770Z,9.10
2022-08-18T12:20:52.875Z,10.48
2022-08-18T12:23:19.239Z,10.30
2022-08-18T12:25:47.835Z,9.70
2022-08-18T12:28:18.279Z,9.90
2022-08-18T12:30:44.903Z,9.90
2022-08-18T12:33:12.590Z,9.15
2022-08-18T12:35:41.834Z,9.00
2022-08-18T12:38:12.880Z,8.38
2022-08-18T12:40:41.599Z,7.47
2022-08-18T12:43:08.129Z,8.95
2022-08-18T12:45:34.780Z,9.07
2022-08-18T12:48:04.767Z,8.65
2022-08-18T12:50:37.566Z,7.63
2022-08-18T12:53:09.595Z,8.20
2022-08-18T12:55:44.140Z,8.73
2022-08-18T12:58:11.985Z,7.43
2022-08-18T13:00:40.718Z,7.25
2022-08-18T13:03:07.589Z,7.43
2022-08-18T13:05:34.977Z,6.63
2022-08-18T13:08:05.223Z,7.60
2022-08-18T13:10:45.538Z,6.97
2022-08-18T13:13:14.186Z,7.25
2022-08-18T13:15:44.460Z,7.63
2022-08-18T13:18:28.603Z,6.20
2022-08-18T13:20:56.866Z,7.45
2022-08-18T13:23:25.219Z,8.07
2022-08-18T13:26:01.589Z,7.05
2022-08-18T13:28:30.899Z,7.10
2022-08-18T13:31:03.613Z,5.90
2022-08-18T13:33:35.353Z,7.03
2022-08-18T13:36:19.464Z,6.53
2022-08-18T13:38:46.216Z,6.75
2022-08-18T13:41:15.948Z,6.57
2022-08-18T13:43:47.870Z,6.32
2022-08-18T13:46:18.430Z,6.28
2022-08-18T13:48:46.035Z,6.60
2022-08-18T13:51:23.708Z,6.45
2022-08-18T13:53:58.848Z,6.20
2022-08-18T13:56:32.965Z,6.57
2022-08-18T13:58:59.397Z,6.80
2022-08-18T14:01:44.846Z,6.03
2022-08-18T14:04:15.150Z,7.75
2022-08-18T14:06:47.126Z,6.53
2022-08-18T14:09:27.947Z,6.43
2022-08-18T14:12:06.774Z,6.28
2022-08-18T14:14:42.007Z,5.97
2022-08-18T14:17:08.915Z,6.75
2022-08-18T14:19:54.088Z,5.85
2022-08-18T14:22:41.856Z,6.00
2022-08-18T14:25:27.686Z,6.47
2022-08-18T14:27:56.816Z,6.40
2022-08-18T14:30:23.874Z,6.32
2022-08-18T14:32:50.342Z,6.80
2022-08-18T14:36:03.701Z,7.43
2022-08-18T14:38:08.055Z,5.85
2022-08-18T14:40:41.552Z,6.32
2022-08-18T14:43:09.167Z,7.38
2022-08-18T14:45:35.999Z,6.60
2022-08-18T14:48:07.491Z,6.53
2022-08-18T14:50:38.951Z,7.25
2022-08-18T14:53:06.145Z,6.10
2022-08-18T14:55:32.518Z,5.97
2022-08-18T14:58:00.717Z,5.85
2022-08-18T15:00:29.500Z,5.30
2022-08-18T15:02:59.840Z,6.07
2022-08-18T15:05:27.094Z,5.72
2022-08-18T15:07:53.834Z,5.68
2022-08-18T15:10:23.626Z,6.15
2022-08-18T15:15:22.483Z,6.03
2022-08-18T15:17:52.426Z,5.70
2022-08-18T15:20:19.735Z,5.82
2022-08-18T15:23:09.278Z,6.13
2022-08-18T15:25:44.398Z,6.10
2022-08-18T15:30:45.421Z,6.35
2022-08-18T15:33:18.574Z,5.53
2022-08-18T15:35:50.509Z,5.80
2022-08-18T15:38:19.942Z,6.63
2022-08-18T15:40:57.185Z,7.00
2022-08-18T15:43:25.373Z,8.13
2022-08-18T15:45:58.609Z,8.82
2022-08-18T15:48:27.250Z,10.65
2022-08-18T15:50:54.515Z,14.80
2022-08-18T15:53:23.340Z,15.30
2022-08-18T15:55:50.273Z,14.93
2022-08-18T15:58:18.223Z,15.38
2022-08-18T16:00:49.049Z,15.00
2022-08-18T16:03:17.462Z,14.18
2022-08-18T16:05:53.178Z,16.25
2022-08-18T16:08:21.955Z,16.17
2022-08-18T16:10:48.770Z,16.60
2022-08-18T16:13:15.187Z,16.38
2022-08-18T16:15:46.548Z,16.15
2022-08-18T16:18:13.602Z,16.10
2022-08-18T16:20:40.170Z,15.55
2022-08-18T16:23:07.438Z,15.40
2022-08-18T16:25:33.997Z,14.82
2022-08-18T16:28:00.622Z,15.18
2022-08-18T16:30:28.612Z,16.45
2022-08-18T16:32:55.038Z,15.48
2022-08-18T16:35:23.418Z,17.08
2022-08-18T16:37:49.875Z,15.68
2022-08-18T16:40:17.738Z,15.68
2022-08-18T16:42:44.158Z,16.48
2022-08-18T16:45:12.202Z,15.43
2022-08-18T16:47:41.137Z,17.58
2022-08-18T16:50:09.869Z,16.98
2022-08-18T16:52:36.569Z,17.25
2022-08-18T16:55:03.931Z,15.90
2022-08-18T16:57:53.110Z,17.40
2022-08-18T17:00:40.776Z,17.92
2022-08-18T17:03:26.877Z,18.13
2022-08-18T17:06:06.645Z,17.63
2022-08-18T17:08:34.059Z,16.05
2022-08-18T17:11:01.741Z,15.65
2022-08-18T17:13:28.246Z,15.15
2022-08-18T17:15:54.658Z,16.08
2022-08-18T17:18:21.314Z,15.68
2022-08-18T17:20:47.884Z,16.15
2022-08-18T17:23:14.349Z,15.30
2022-08-18T17:25:40.781Z,15.77
2022-08-18T17:28:10.146Z,15.13
2022-08-18T17:30:40.577Z,14.60
2022-08-18T17:33:13.202Z,13.27
2022-08-18T17:35:44.605Z,14.30
2022-08-18T17:38:36.467Z,13.35
2022-08-18T17:41:03.925Z,13.35
2022-08-18T17:43:33.460Z,12.30
2022-08-18T17:46:13.122Z,12.38
2022-08-18T17:48:55.306Z,11.77
2022-08-18T17:51:42.516Z,11.10
2022-08-18T17:54:27.694Z,11.52
2022-08-18T17:57:28.330Z,11.50
2022-08-18T18:00:09.681Z,11.85
2022-08-18T18:02:36.054Z,11.27
2022-08-18T18:05:06.171Z,10.80
2022-08-18T18:07:44.886Z,11.07
2022-08-18T18:10:14.259Z,10.32
2022-08-18T18:12:41.273Z,10.57
2022-08-18T18:15:12.080Z,11.82
2022-08-18T18:17:42.808Z,12.27
2022-08-18T18:20:37.935Z,10.52
2022-08-18T18:23:20.033Z,12.05
2022-08-18T18:25:47.048Z,13.52
2022-08-18T18:28:31.597Z,18.17
2022-08-18T18:33:28.336Z,13.30
2022-08-18T18:35:57.841Z,13.75
2022-08-18T18:38:27.573Z,12.80
2022-08-18T18:41:06.647Z,12.05
2022-08-18T18:43:38.414Z,11.35
2022-08-18T18:46:19.188Z,12.50
2022-08-18T18:48:56.502Z,12.90
2022-08-18T18:51:40.319Z,11.48
2022-08-18T18:54:43.699Z,12.43
2022-08-18T18:57:26.493Z,12.75
2022-08-18T19:00:11.612Z,13.55
2022-08-18T19:02:49.370Z,13.63
2022-08-18T19:05:35.486Z,13.02
2022-08-18T19:08:33.092Z,13.45
2022-08-18T19:11:05.575Z,13.98
2022-08-18T19:13:35.723Z,14.30
2022-08-18T19:16:29.872Z,13.85
2022-08-18T19:19:36.834Z,14.87
2022-08-18T19:22:04.682Z,14.05
2022-08-18T19:24:39.317Z,13.40
2022-08-18T19:27:13.563Z,12.93
2022-08-18T19:32:16.205Z,13.13
2022-08-18T19:34:52.869Z,12.48
2022-08-18T19:38:01.930Z,13.43
2022-08-18T19:40:39.001Z,11.73
2022-08-18T19:43:12.358Z,11.83
2022-08-18T19:45:47.037Z,12.15
2022-08-18T19:48:19.937Z,12.30
2022-08-18T19:51:07.955Z,11.13
2022-08-18T19:53:55.911Z,11.23
2022-08-18T19:57:03.400Z,12.15
2022-08-18T19:59:49.549Z,10.88
2022-08-18T20:02:34.018Z,11.23
2022-08-18T20:05:28.966Z,11.30
2022-08-18T20:11:03.299Z,11.02
2022-08-18T20:13:42.486Z,10.98
2022-08-18T20:16:43.549Z,11.68
2022-08-18T20:19:29.246Z,11.30
2022-08-18T20:22:07.875Z,10.88
2022-08-18T20:24:50.217Z,11.38
2022-08-18T20:27:35.621Z,11.35
2022-08-18T20:30:20.489Z,11.50
2022-08-18T20:33:08.411Z,11.52
2022-08-18T20:35:46.896Z,10.82
2022-08-18T20:38:19.638Z,11.50
2022-08-18T20:40:49.742Z,11.65
2022-08-18T20:43:31.696Z,11.93
2022-08-18T20:46:32.513Z,11.10
2022-08-18T20:49:16.418Z,11.55
2022-08-18T20:52:13.935Z,11.63
2022-08-18T20:54:58.275Z,12.38
2022-08-18T20:57:26.795Z,11.80
2022-08-18T21:00:02.049Z,12.90
2022-08-18T21:02:38.526Z,11.40
2022-08-18T21:05:05.547Z,12.07
2022-08-18T21:07:37.991Z,11.63
2022-08-18T21:10:19.922Z,11.27
2022-08-18T21:12:52.922Z,11.23
2022-08-18T21:15:21.487Z,11.52
2022-08-18T21:18:16.230Z,11.63
2022-08-18T21:20:42.679Z,10.77
2022-08-18T21:23:12.194Z,11.10
2022-08-18T21:25:50.630Z,10.57
2022-08-18T21:28:17.440Z,10.88
2022-08-18T21:30:56.913Z,10.68
2022-08-18T21:33:49.555Z,12.10
2022-08-18T21:36:18.300Z,12.27
2022-08-18T21:39:05.649Z,11.63
2022-08-18T21:41:33.869Z,11.57
2022-08-18T21:44:05.131Z,12.35
2022-08-18T21:46:32.152Z,11.55
2022-08-18T21:49:00.958Z,11.45
2022-08-18T21:51:42.494Z,11.65
2022-08-18T21:54:09.404Z,12.43
2022-08-18T21:56:36.993Z,11.88
2022-08-18T21:59:09.616Z,11.73
2022-08-18T22:01:57.932Z,12.77
2022-08-18T22:04:35.897Z,12.63
2022-08-18T22:07:34.397Z,12.45
2022-08-18T22:10:40.975Z,12.05
2022-08-18T22:13:36.083Z,10.77
2022-08-18T22:16:24.472Z,10.90
2022-08-18T22:18:51.659Z,11.38
2022-08-18T22:21:41.170Z,11.90
2022-08-18T22:24:20.497Z,11.68
2022-08-18T22:27:18.991Z,12.30
2022-08-18T22:30:04.765Z,11.57
2022-08-18T22:32:35.333Z,11.45
2022-08-18T22:35:02.512Z,11.93
2022-08-18T22:37:32.439Z,13.52
2022-08-18T22:40:10.039Z,12.23
2022-08-18T22:42:36.659Z,11.98
2022-08-18T22:45:07.111Z,11.07
2022-08-18T22:47:34.114Z,12.00
2022-08-18T22:50:10.703Z,11.57
2022-08-18T22:52:41.193Z,11.43
2022-08-18T22:55:09.775Z,11.95
2022-08-18T22:57:37.759Z,12.20
2022-08-18T23:00:10.198Z,11.55
2022-08-18T23:02:36.887Z,11.98
2022-08-18T23:05:04.822Z,11.60
2022-08-18T23:07:31.461Z,11.15
2022-08-18T23:09:58.058Z,11.55
2022-08-18T23:12:24.637Z,11.98
2022-08-18T23:14:51.609Z,12.70
2022-08-18T23:17:21.693Z,11.98
2022-08-18T23:19:48.569Z,13.15
2022-08-18T23:22:19.065Z,13.45
2022-08-18T23:24:45.442Z,14.00
2022-08-18T23:27:11.873Z,13.85
2022-08-18T23:29:39.659Z,12.73
2022-08-18T23:32:06.816Z,11.50
2022-08-18T23:34:36.418Z,14.25
2022-08-18T23:37:04.438Z,14.48
2022-08-18T23:39:33.138Z,13.18
2022-08-18T23:42:00.970Z,13.38
2022-08-18T23:44:28.065Z,13.65
2022-08-18T23:46:56.398Z,11.60
2022-08-18T23:49:23.300Z,12.02
2022-08-18T23:51:51.150Z,11.55
2022-08-18T23:54:22.955Z,12.00
2022-08-18T23:56:49.458Z,11.75
2022-08-18T23:59:17.318Z,10.75
